Kingville, South Carolina
Current Conditions -  °F | °C
As of 3:58 PM on Wednesday 17 Dec 2014 (Local Time) from KMMT Reporting Station
Scattered Clouds Scattered Clouds  
Wind Chill: 17°   Ceiling: Unl
Heat Index: 17°   Visibility: 10mi
Dew Point:   Wind: 2mph
Humidity: 39%   Direction: 290°WNW
Pressure: 30.07"   Gusts: NA
Location:  33.8428°N, 80.7414°W
Report Text: KMMT 172058Z 29002KT 10SM SCT250 17/03 A3007 RMK AO2A SLP186 T01660027 56007
Loading
Personal Weather Stations






























Interactive Weather Map New forecast layout! Learn more

10-Day Weather Forecast

Advertisements
Track Severe Weather on mobile